sensor_id;sensor_type;location;lat;lon;timestamp;temperature;humidity
81315;DHT22;75773;52.534;5.686;2024-02-26T00:00:10;3.70;81.60
81315;DHT22;75773;52.534;5.686;2024-02-26T00:02:40;3.70;81.50
81315;DHT22;75773;52.534;5.686;2024-02-26T00:05:09;3.70;81.60
81315;DHT22;75773;52.534;5.686;2024-02-26T00:07:38;3.70;81.60
81315;DHT22;75773;52.534;5.686;2024-02-26T00:10:12;3.70;81.50
81315;DHT22;75773;52.534;5.686;2024-02-26T00:12:42;3.70;81.50
81315;DHT22;75773;52.534;5.686;2024-02-26T00:15:13;3.70;81.60
81315;DHT22;75773;52.534;5.686;2024-02-26T00:17:42;3.70;81.50
81315;DHT22;75773;52.534;5.686;2024-02-26T00:20:13;3.70;81.50
81315;DHT22;75773;52.534;5.686;2024-02-26T00:22:43;3.70;81.60
81315;DHT22;75773;52.534;5.686;2024-02-26T00:25:15;3.70;81.60
81315;DHT22;75773;52.534;5.686;2024-02-26T00:27:47;3.70;81.50
81315;DHT22;75773;52.534;5.686;2024-02-26T00:30:22;3.70;81.50
81315;DHT22;75773;52.534;5.686;2024-02-26T00:32:51;3.70;81.50
81315;DHT22;75773;52.534;5.686;2024-02-26T00:35:23;3.70;81.50
81315;DHT22;75773;52.534;5.686;2024-02-26T00:37:52;3.80;81.50
81315;DHT22;75773;52.534;5.686;2024-02-26T00:40:24;3.80;81.50
81315;DHT22;75773;52.534;5.686;2024-02-26T00:42:54;3.90;81.40
81315;DHT22;75773;52.534;5.686;2024-02-26T00:45:27;3.90;81.50
81315;DHT22;75773;52.534;5.686;2024-02-26T00:47:58;3.90;81.40
81315;DHT22;75773;52.534;5.686;2024-02-26T00:50:30;3.90;81.40
81315;DHT22;75773;52.534;5.686;2024-02-26T00:53:00;3.90;81.40
81315;DHT22;75773;52.534;5.686;2024-02-26T00:55:32;3.90;81.40
81315;DHT22;75773;52.534;5.686;2024-02-26T00:58:01;3.90;81.40
81315;DHT22;75773;52.534;5.686;2024-02-26T01:00:30;3.90;81.40
81315;DHT22;75773;52.534;5.686;2024-02-26T01:03:00;3.90;81.40
81315;DHT22;75773;52.534;5.686;2024-02-26T01:05:30;3.90;81.40
81315;DHT22;75773;52.534;5.686;2024-02-26T01:07:59;4.00;81.50
81315;DHT22;75773;52.534;5.686;2024-02-26T01:10:31;4.00;81.50
81315;DHT22;75773;52.534;5.686;2024-02-26T01:13:01;4.00;81.50
81315;DHT22;75773;52.534;5.686;2024-02-26T01:15:30;3.90;81.50
81315;DHT22;75773;52.534;5.686;2024-02-26T01:17:59;3.90;81.50
81315;DHT22;75773;52.534;5.686;2024-02-26T01:20:29;3.90;81.50
81315;DHT22;75773;52.534;5.686;2024-02-26T01:22:58;3.90;81.60
81315;DHT22;75773;52.534;5.686;2024-02-26T01:25:31;3.90;81.50
81315;DHT22;75773;52.534;5.686;2024-02-26T01:28:00;3.90;81.60
81315;DHT22;75773;52.534;5.686;2024-02-26T01:30:29;3.90;81.70
81315;DHT22;75773;52.534;5.686;2024-02-26T01:32:59;3.90;81.80
81315;DHT22;75773;52.534;5.686;2024-02-26T01:35:28;3.90;81.80
81315;DHT22;75773;52.534;5.686;2024-02-26T01:37:57;3.90;81.70
81315;DHT22;75773;52.534;5.686;2024-02-26T01:40:27;3.80;81.80
81315;DHT22;75773;52.534;5.686;2024-02-26T01:42:59;3.70;81.80
81315;DHT22;75773;52.534;5.686;2024-02-26T01:45:29;3.80;81.80
81315;DHT22;75773;52.534;5.686;2024-02-26T01:47:58;3.70;81.90
81315;DHT22;75773;52.534;5.686;2024-02-26T01:50:28;3.70;81.90
81315;DHT22;75773;52.534;5.686;2024-02-26T01:53:01;3.60;81.90
81315;DHT22;75773;52.534;5.686;2024-02-26T01:55:30;3.60;81.90
81315;DHT22;75773;52.534;5.686;2024-02-26T01:58:02;3.60;82.00
81315;DHT22;75773;52.534;5.686;2024-02-26T02:00:32;3.60;82.00
81315;DHT22;75773;52.534;5.686;2024-02-26T02:03:02;3.50;82.00
81315;DHT22;75773;52.534;5.686;2024-02-26T02:05:33;3.50;82.10
81315;DHT22;75773;52.534;5.686;2024-02-26T02:08:08;3.50;82.10
81315;DHT22;75773;52.534;5.686;2024-02-26T02:10:38;3.50;82.10
81315;DHT22;75773;52.534;5.686;2024-02-26T02:13:10;3.50;82.00
81315;DHT22;75773;52.534;5.686;2024-02-26T02:15:40;3.50;82.00
81315;DHT22;75773;52.534;5.686;2024-02-26T02:18:09;3.50;82.00
81315;DHT22;75773;52.534;5.686;2024-02-26T02:20:41;3.50;82.00
81315;DHT22;75773;52.534;5.686;2024-02-26T02:23:11;3.50;82.00
81315;DHT22;75773;52.534;5.686;2024-02-26T02:25:42;3.50;82.00
81315;DHT22;75773;52.534;5.686;2024-02-26T02:28:11;3.50;82.00
81315;DHT22;75773;52.534;5.686;2024-02-26T02:30:44;3.50;82.00
81315;DHT22;75773;52.534;5.686;2024-02-26T02:33:18;3.50;82.00
81315;DHT22;75773;52.534;5.686;2024-02-26T02:35:53;3.50;82.10
81315;DHT22;75773;52.534;5.686;2024-02-26T02:38:22;3.50;82.00
81315;DHT22;75773;52.534;5.686;2024-02-26T02:40:54;3.50;82.00
81315;DHT22;75773;52.534;5.686;2024-02-26T02:43:24;3.50;81.80
81315;DHT22;75773;52.534;5.686;2024-02-26T02:45:54;3.50;81.80
81315;DHT22;75773;52.534;5.686;2024-02-26T02:48:23;3.50;81.80
81315;DHT22;75773;52.534;5.686;2024-02-26T02:50:55;3.50;81.80
81315;DHT22;75773;52.534;5.686;2024-02-26T02:53:25;3.50;81.80
81315;DHT22;75773;52.534;5.686;2024-02-26T02:55:58;3.50;81.80
81315;DHT22;75773;52.534;5.686;2024-02-26T02:58:27;3.50;81.90
81315;DHT22;75773;52.534;5.686;2024-02-26T03:00:57;3.50;81.90
81315;DHT22;75773;52.534;5.686;2024-02-26T03:03:27;3.50;81.90
81315;DHT22;75773;52.534;5.686;2024-02-26T03:05:58;3.50;81.90
81315;DHT22;75773;52.534;5.686;2024-02-26T03:08:28;3.50;82.00
81315;DHT22;75773;52.534;5.686;2024-02-26T03:10:58;3.50;82.00
81315;DHT22;75773;52.534;5.686;2024-02-26T03:13:28;3.50;82.00
81315;DHT22;75773;52.534;5.686;2024-02-26T03:15:57;3.50;82.10
81315;DHT22;75773;52.534;5.686;2024-02-26T03:18:27;3.50;82.10
81315;DHT22;75773;52.534;5.686;2024-02-26T03:21:02;3.50;82.10
81315;DHT22;75773;52.534;5.686;2024-02-26T03:23:34;3.50;82.10
81315;DHT22;75773;52.534;5.686;2024-02-26T03:26:04;3.50;82.10
81315;DHT22;75773;52.534;5.686;2024-02-26T03:28:35;3.50;82.10
81315;DHT22;75773;52.534;5.686;2024-02-26T03:31:04;3.50;82.00
81315;DHT22;75773;52.534;5.686;2024-02-26T03:33:34;3.50;82.10
81315;DHT22;75773;52.534;5.686;2024-02-26T03:36:06;3.50;82.10
81315;DHT22;75773;52.534;5.686;2024-02-26T03:38:38;3.50;82.10
81315;DHT22;75773;52.534;5.686;2024-02-26T03:41:07;3.50;82.00
81315;DHT22;75773;52.534;5.686;2024-02-26T03:43:37;3.50;82.00
81315;DHT22;75773;52.534;5.686;2024-02-26T03:46:11;3.50;82.00
81315;DHT22;75773;52.534;5.686;2024-02-26T03:48:41;3.50;81.90
81315;DHT22;75773;52.534;5.686;2024-02-26T03:51:13;3.50;81.90
81315;DHT22;75773;52.534;5.686;2024-02-26T03:53:42;3.60;82.00
81315;DHT22;75773;52.534;5.686;2024-02-26T03:56:12;3.60;81.90
81315;DHT22;75773;52.534;5.686;2024-02-26T03:58:41;3.60;81.90
81315;DHT22;75773;52.534;5.686;2024-02-26T04:01:10;3.60;81.90
81315;DHT22;75773;52.534;5.686;2024-02-26T04:03:40;3.60;81.90
81315;DHT22;75773;52.534;5.686;2024-02-26T04:06:12;3.70;81.90
81315;DHT22;75773;52.534;5.686;2024-02-26T04:08:44;3.70;81.90
81315;DHT22;75773;52.534;5.686;2024-02-26T04:11:13;3.70;81.90
81315;DHT22;75773;52.534;5.686;2024-02-26T04:13:44;3.70;81.90
81315;DHT22;75773;52.534;5.686;2024-02-26T04:16:18;3.70;81.90
81315;DHT22;75773;52.534;5.686;2024-02-26T04:18:48;3.80;81.90
81315;DHT22;75773;52.534;5.686;2024-02-26T04:21:20;3.80;81.90
81315;DHT22;75773;52.534;5.686;2024-02-26T04:23:49;3.80;81.90
81315;DHT22;75773;52.534;5.686;2024-02-26T04:26:21;3.80;81.90
81315;DHT22;75773;52.534;5.686;2024-02-26T04:28:50;3.80;81.90
81315;DHT22;75773;52.534;5.686;2024-02-26T04:31:20;3.80;81.90
81315;DHT22;75773;52.534;5.686;2024-02-26T04:33:49;3.90;82.00
81315;DHT22;75773;52.534;5.686;2024-02-26T04:36:21;3.90;82.00
81315;DHT22;75773;52.534;5.686;2024-02-26T04:38:52;3.90;82.00
81315;DHT22;75773;52.534;5.686;2024-02-26T04:41:22;3.90;82.00
81315;DHT22;75773;52.534;5.686;2024-02-26T04:43:52;3.90;82.00
81315;DHT22;75773;52.534;5.686;2024-02-26T04:46:21;3.90;82.00
81315;DHT22;75773;52.534;5.686;2024-02-26T04:48:51;3.90;82.00
81315;DHT22;75773;52.534;5.686;2024-02-26T04:51:26;3.90;82.00
81315;DHT22;75773;52.534;5.686;2024-02-26T04:53:55;3.90;82.10
81315;DHT22;75773;52.534;5.686;2024-02-26T04:56:25;3.90;82.10
81315;DHT22;75773;52.534;5.686;2024-02-26T04:58:54;3.90;82.00
81315;DHT22;75773;52.534;5.686;2024-02-26T05:01:24;3.90;82.10
81315;DHT22;75773;52.534;5.686;2024-02-26T05:03:53;3.90;82.10
81315;DHT22;75773;52.534;5.686;2024-02-26T05:06:25;3.90;82.10
81315;DHT22;75773;52.534;5.686;2024-02-26T05:08:55;3.90;82.20
81315;DHT22;75773;52.534;5.686;2024-02-26T05:11:24;3.80;82.10
81315;DHT22;75773;52.534;5.686;2024-02-26T05:13:54;3.90;82.20
81315;DHT22;75773;52.534;5.686;2024-02-26T05:16:23;3.80;82.20
81315;DHT22;75773;52.534;5.686;2024-02-26T05:18:58;3.90;82.20
81315;DHT22;75773;52.534;5.686;2024-02-26T05:21:30;3.90;82.20
81315;DHT22;75773;52.534;5.686;2024-02-26T05:24:00;3.80;82.20
81315;DHT22;75773;52.534;5.686;2024-02-26T05:26:29;3.80;82.30
81315;DHT22;75773;52.534;5.686;2024-02-26T05:29:01;3.80;82.30
81315;DHT22;75773;52.534;5.686;2024-02-26T05:31:32;3.80;82.30
81315;DHT22;75773;52.534;5.686;2024-02-26T05:34:02;3.80;82.40
81315;DHT22;75773;52.534;5.686;2024-02-26T05:36:34;3.80;82.40
81315;DHT22;75773;52.534;5.686;2024-02-26T05:39:03;3.80;82.40
81315;DHT22;75773;52.534;5.686;2024-02-26T05:41:33;3.80;82.40
81315;DHT22;75773;52.534;5.686;2024-02-26T05:44:09;3.80;82.30
81315;DHT22;75773;52.534;5.686;2024-02-26T05:46:38;3.80;82.30
81315;DHT22;75773;52.534;5.686;2024-02-26T05:49:08;3.80;82.30
81315;DHT22;75773;52.534;5.686;2024-02-26T05:51:40;3.90;82.30
81315;DHT22;75773;52.534;5.686;2024-02-26T05:54:09;3.90;82.30
81315;DHT22;75773;52.534;5.686;2024-02-26T05:56:39;3.90;82.30
81315;DHT22;75773;52.534;5.686;2024-02-26T05:59:09;3.90;82.30
81315;DHT22;75773;52.534;5.686;2024-02-26T06:01:38;3.90;82.30
81315;DHT22;75773;52.534;5.686;2024-02-26T06:04:07;3.90;82.40
81315;DHT22;75773;52.534;5.686;2024-02-26T06:06:43;3.90;82.30
81315;DHT22;75773;52.534;5.686;2024-02-26T06:09:13;3.90;82.30
81315;DHT22;75773;52.534;5.686;2024-02-26T06:11:45;3.90;82.30
81315;DHT22;75773;52.534;5.686;2024-02-26T06:14:14;3.90;82.40
81315;DHT22;75773;52.534;5.686;2024-02-26T06:16:44;3.90;82.40
81315;DHT22;75773;52.534;5.686;2024-02-26T06:19:14;3.90;82.40
81315;DHT22;75773;52.534;5.686;2024-02-26T06:21:46;3.90;82.40
81315;DHT22;75773;52.534;5.686;2024-02-26T06:24:16;3.90;82.30
81315;DHT22;75773;52.534;5.686;2024-02-26T06:26:47;3.90;82.30
81315;DHT22;75773;52.534;5.686;2024-02-26T06:29:16;3.90;82.30
81315;DHT22;75773;52.534;5.686;2024-02-26T06:31:46;3.90;82.40
81315;DHT22;75773;52.534;5.686;2024-02-26T06:34:17;3.90;82.40
81315;DHT22;75773;52.534;5.686;2024-02-26T06:36:51;3.90;82.40
81315;DHT22;75773;52.534;5.686;2024-02-26T06:39:21;3.90;82.40
81315;DHT22;75773;52.534;5.686;2024-02-26T06:41:50;3.90;82.40
81315;DHT22;75773;52.534;5.686;2024-02-26T06:44:26;3.90;82.40
81315;DHT22;75773;52.534;5.686;2024-02-26T06:46:58;3.90;82.40
81315;DHT22;75773;52.534;5.686;2024-02-26T06:49:28;3.90;82.40
81315;DHT22;75773;52.534;5.686;2024-02-26T06:52:00;3.90;82.40
81315;DHT22;75773;52.534;5.686;2024-02-26T06:54:30;3.90;82.40
81315;DHT22;75773;52.534;5.686;2024-02-26T06:57:00;3.90;82.40
81315;DHT22;75773;52.534;5.686;2024-02-26T06:59:34;3.90;82.40
81315;DHT22;75773;52.534;5.686;2024-02-26T07:02:05;3.90;82.40
81315;DHT22;75773;52.534;5.686;2024-02-26T07:04:35;3.90;82.40
81315;DHT22;75773;52.534;5.686;2024-02-26T07:07:10;3.90;82.40
81315;DHT22;75773;52.534;5.686;2024-02-26T07:09:42;3.90;82.40
81315;DHT22;75773;52.534;5.686;2024-02-26T07:12:12;3.90;82.50
81315;DHT22;75773;52.534;5.686;2024-02-26T07:14:50;3.90;82.50
81315;DHT22;75773;52.534;5.686;2024-02-26T07:17:21;3.90;82.50
81315;DHT22;75773;52.534;5.686;2024-02-26T07:19:57;3.90;82.40
81315;DHT22;75773;52.534;5.686;2024-02-26T07:22:31;3.90;82.40
81315;DHT22;75773;52.534;5.686;2024-02-26T07:25:04;3.90;82.40
81315;DHT22;75773;52.534;5.686;2024-02-26T07:27:35;3.90;82.40
81315;DHT22;75773;52.534;5.686;2024-02-26T07:30:11;3.90;82.40
81315;DHT22;75773;52.534;5.686;2024-02-26T07:32:42;3.90;82.30
81315;DHT22;75773;52.534;5.686;2024-02-26T07:35:12;3.90;82.40
81315;DHT22;75773;52.534;5.686;2024-02-26T07:37:48;3.90;82.30
81315;DHT22;75773;52.534;5.686;2024-02-26T07:40:18;3.90;82.30
81315;DHT22;75773;52.534;5.686;2024-02-26T07:42:48;3.90;82.30
81315;DHT22;75773;52.534;5.686;2024-02-26T07:45:20;3.90;82.30
81315;DHT22;75773;52.534;5.686;2024-02-26T07:47:57;3.90;82.30
81315;DHT22;75773;52.534;5.686;2024-02-26T07:50:26;3.90;82.30
81315;DHT22;75773;52.534;5.686;2024-02-26T07:52:58;3.90;82.30
81315;DHT22;75773;52.534;5.686;2024-02-26T07:55:31;3.90;82.30
81315;DHT22;75773;52.534;5.686;2024-02-26T07:58:00;4.00;82.30
81315;DHT22;75773;52.534;5.686;2024-02-26T08:03:09;4.00;82.20
81315;DHT22;75773;52.534;5.686;2024-02-26T08:05:43;4.00;82.20
81315;DHT22;75773;52.534;5.686;2024-02-26T08:08:15;4.10;82.20
81315;DHT22;75773;52.534;5.686;2024-02-26T08:10:50;4.10;82.10
81315;DHT22;75773;52.534;5.686;2024-02-26T08:13:19;4.10;82.10
81315;DHT22;75773;52.534;5.686;2024-02-26T08:15:52;4.10;82.10
81315;DHT22;75773;52.534;5.686;2024-02-26T08:18:22;4.10;82.00
81315;DHT22;75773;52.534;5.686;2024-02-26T08:20:59;4.20;82.00
81315;DHT22;75773;52.534;5.686;2024-02-26T08:23:32;4.20;82.00
81315;DHT22;75773;52.534;5.686;2024-02-26T08:26:02;4.20;82.00
81315;DHT22;75773;52.534;5.686;2024-02-26T08:28:37;4.20;82.00
81315;DHT22;75773;52.534;5.686;2024-02-26T08:31:08;4.20;82.00
81315;DHT22;75773;52.534;5.686;2024-02-26T08:33:37;4.30;82.00
81315;DHT22;75773;52.534;5.686;2024-02-26T08:36:07;4.30;81.90
81315;DHT22;75773;52.534;5.686;2024-02-26T08:38:45;4.30;81.90
81315;DHT22;75773;52.534;5.686;2024-02-26T08:41:19;4.30;81.90
81315;DHT22;75773;52.534;5.686;2024-02-26T08:43:49;4.40;81.80
81315;DHT22;75773;52.534;5.686;2024-02-26T08:46:18;4.40;81.80
81315;DHT22;75773;52.534;5.686;2024-02-26T08:48:50;4.40;81.80
81315;DHT22;75773;52.534;5.686;2024-02-26T08:51:27;4.40;81.80
81315;DHT22;75773;52.534;5.686;2024-02-26T08:54:01;4.50;81.80
81315;DHT22;75773;52.534;5.686;2024-02-26T08:56:31;4.50;81.80
81315;DHT22;75773;52.534;5.686;2024-02-26T08:59:00;4.50;81.70
81315;DHT22;75773;52.534;5.686;2024-02-26T09:01:31;4.50;81.70
81315;DHT22;75773;52.534;5.686;2024-02-26T09:04:01;4.50;81.70
81315;DHT22;75773;52.534;5.686;2024-02-26T09:06:30;4.60;81.60
81315;DHT22;75773;52.534;5.686;2024-02-26T09:09:02;4.60;81.60
81315;DHT22;75773;52.534;5.686;2024-02-26T09:11:32;4.60;81.60
81315;DHT22;75773;52.534;5.686;2024-02-26T09:14:01;4.60;81.60
81315;DHT22;75773;52.534;5.686;2024-02-26T09:16:36;4.60;81.70
81315;DHT22;75773;52.534;5.686;2024-02-26T09:19:05;4.60;81.60
81315;DHT22;75773;52.534;5.686;2024-02-26T09:21:35;4.60;81.60
81315;DHT22;75773;52.534;5.686;2024-02-26T09:24:07;4.70;81.60
81315;DHT22;75773;52.534;5.686;2024-02-26T09:26:39;4.70;81.60
81315;DHT22;75773;52.534;5.686;2024-02-26T09:29:09;4.70;81.50
81315;DHT22;75773;52.534;5.686;2024-02-26T09:31:38;4.70;81.50
81315;DHT22;75773;52.534;5.686;2024-02-26T09:34:10;4.70;81.50
81315;DHT22;75773;52.534;5.686;2024-02-26T09:36:39;4.70;81.40
81315;DHT22;75773;52.534;5.686;2024-02-26T09:39:11;4.80;81.50
81315;DHT22;75773;52.534;5.686;2024-02-26T09:41:44;4.90;81.40
81315;DHT22;75773;52.534;5.686;2024-02-26T09:44:18;4.90;81.40
81315;DHT22;75773;52.534;5.686;2024-02-26T09:46:48;4.90;81.30
81315;DHT22;75773;52.534;5.686;2024-02-26T09:49:20;5.00;81.20
81315;DHT22;75773;52.534;5.686;2024-02-26T09:51:52;5.00;81.20
81315;DHT22;75773;52.534;5.686;2024-02-26T09:54:27;5.10;81.20
81315;DHT22;75773;52.534;5.686;2024-02-26T09:57:00;5.10;81.10
81315;DHT22;75773;52.534;5.686;2024-02-26T09:59:34;5.10;81.10
81315;DHT22;75773;52.534;5.686;2024-02-26T10:02:14;5.20;81.10
81315;DHT22;75773;52.534;5.686;2024-02-26T10:04:47;5.30;81.00
81315;DHT22;75773;52.534;5.686;2024-02-26T10:07:17;5.30;81.10
81315;DHT22;75773;52.534;5.686;2024-02-26T10:09:50;5.30;81.00
81315;DHT22;75773;52.534;5.686;2024-02-26T10:12:19;5.30;81.00
81315;DHT22;75773;52.534;5.686;2024-02-26T10:14:49;5.30;81.00
81315;DHT22;75773;52.534;5.686;2024-02-26T10:17:26;5.30;81.00
81315;DHT22;75773;52.534;5.686;2024-02-26T10:20:19;5.40;80.90
81315;DHT22;75773;52.534;5.686;2024-02-26T10:22:49;5.50;80.90
81315;DHT22;75773;52.534;5.686;2024-02-26T10:25:52;5.50;81.00
81315;DHT22;75773;52.534;5.686;2024-02-26T10:28:21;5.50;80.90
81315;DHT22;75773;52.534;5.686;2024-02-26T10:30:56;5.50;80.80
81315;DHT22;75773;52.534;5.686;2024-02-26T10:33:26;5.60;80.80
81315;DHT22;75773;52.534;5.686;2024-02-26T10:36:11;5.60;80.80
81315;DHT22;75773;52.534;5.686;2024-02-26T10:38:41;5.60;80.80
81315;DHT22;75773;52.534;5.686;2024-02-26T10:41:16;5.70;80.80
81315;DHT22;75773;52.534;5.686;2024-02-26T10:43:50;5.70;80.70
81315;DHT22;75773;52.534;5.686;2024-02-26T10:46:21;5.80;80.70
81315;DHT22;75773;52.534;5.686;2024-02-26T10:48:53;5.80;80.60
81315;DHT22;75773;52.534;5.686;2024-02-26T10:51:28;5.90;80.50
81315;DHT22;75773;52.534;5.686;2024-02-26T10:54:02;5.90;80.50
81315;DHT22;75773;52.534;5.686;2024-02-26T10:56:50;6.00;80.50
81315;DHT22;75773;52.534;5.686;2024-02-26T10:59:20;6.00;80.50
81315;DHT22;75773;52.534;5.686;2024-02-26T11:01:50;6.00;80.50
81315;DHT22;75773;52.534;5.686;2024-02-26T11:04:21;6.00;80.50
81315;DHT22;75773;52.534;5.686;2024-02-26T11:06:57;6.10;80.50
81315;DHT22;75773;52.534;5.686;2024-02-26T11:09:27;6.10;80.40
81315;DHT22;75773;52.534;5.686;2024-02-26T11:12:02;6.10;80.40
81315;DHT22;75773;52.534;5.686;2024-02-26T11:14:38;6.10;80.40
81315;DHT22;75773;52.534;5.686;2024-02-26T11:17:10;6.10;80.40
81315;DHT22;75773;52.534;5.686;2024-02-26T11:19:41;6.10;80.40
81315;DHT22;75773;52.534;5.686;2024-02-26T11:22:14;6.10;80.40
81315;DHT22;75773;52.534;5.686;2024-02-26T11:24:44;6.10;80.30
81315;DHT22;75773;52.534;5.686;2024-02-26T11:27:23;6.10;80.40
81315;DHT22;75773;52.534;5.686;2024-02-26T11:29:57;6.10;80.40
81315;DHT22;75773;52.534;5.686;2024-02-26T11:32:28;6.20;80.30
81315;DHT22;75773;52.534;5.686;2024-02-26T11:35:05;6.30;80.20
81315;DHT22;75773;52.534;5.686;2024-02-26T11:37:36;6.40;80.10
81315;DHT22;75773;52.534;5.686;2024-02-26T11:40:13;6.40;80.10
81315;DHT22;75773;52.534;5.686;2024-02-26T11:42:51;6.40;80.00
81315;DHT22;75773;52.534;5.686;2024-02-26T11:45:52;6.40;80.10
81315;DHT22;75773;52.534;5.686;2024-02-26T11:48:25;6.50;80.00
81315;DHT22;75773;52.534;5.686;2024-02-26T11:51:01;6.50;80.00
81315;DHT22;75773;52.534;5.686;2024-02-26T11:53:46;6.60;80.00
81315;DHT22;75773;52.534;5.686;2024-02-26T11:56:22;6.60;79.80
81315;DHT22;75773;52.534;5.686;2024-02-26T11:59:04;6.60;79.80
81315;DHT22;75773;52.534;5.686;2024-02-26T12:01:44;6.60;79.80
81315;DHT22;75773;52.534;5.686;2024-02-26T12:04:17;6.60;79.80
81315;DHT22;75773;52.534;5.686;2024-02-26T12:06:51;6.60;79.80
81315;DHT22;75773;52.534;5.686;2024-02-26T12:09:37;6.50;79.70
81315;DHT22;75773;52.534;5.686;2024-02-26T12:12:08;6.50;79.90
81315;DHT22;75773;52.534;5.686;2024-02-26T12:14:52;6.50;79.80
81315;DHT22;75773;52.534;5.686;2024-02-26T12:17:31;6.60;79.80
81315;DHT22;75773;52.534;5.686;2024-02-26T12:20:08;6.60;79.80
81315;DHT22;75773;52.534;5.686;2024-02-26T12:22:39;6.50;79.80
81315;DHT22;75773;52.534;5.686;2024-02-26T12:25:09;6.50;79.80
81315;DHT22;75773;52.534;5.686;2024-02-26T12:27:39;6.50;79.80
81315;DHT22;75773;52.534;5.686;2024-02-26T12:30:12;6.60;79.70
81315;DHT22;75773;52.534;5.686;2024-02-26T12:32:41;6.60;79.70
81315;DHT22;75773;52.534;5.686;2024-02-26T12:35:11;6.70;79.70
81315;DHT22;75773;52.534;5.686;2024-02-26T12:37:42;6.70;79.60
81315;DHT22;75773;52.534;5.686;2024-02-26T12:40:14;6.70;79.60
81315;DHT22;75773;52.534;5.686;2024-02-26T12:42:43;6.70;79.50
81315;DHT22;75773;52.534;5.686;2024-02-26T12:45:16;6.70;79.60
81315;DHT22;75773;52.534;5.686;2024-02-26T12:47:47;6.70;79.60
81315;DHT22;75773;52.534;5.686;2024-02-26T12:50:19;6.70;79.60
81315;DHT22;75773;52.534;5.686;2024-02-26T12:52:50;6.60;79.50
81315;DHT22;75773;52.534;5.686;2024-02-26T12:55:20;6.50;79.60
81315;DHT22;75773;52.534;5.686;2024-02-26T12:57:51;6.50;79.70
81315;DHT22;75773;52.534;5.686;2024-02-26T13:00:26;6.50;79.70
81315;DHT22;75773;52.534;5.686;2024-02-26T13:02:56;6.50;79.70
81315;DHT22;75773;52.534;5.686;2024-02-26T13:05:26;6.50;79.70
81315;DHT22;75773;52.534;5.686;2024-02-26T13:07:55;6.50;79.60
81315;DHT22;75773;52.534;5.686;2024-02-26T13:10:25;6.50;79.60
81315;DHT22;75773;52.534;5.686;2024-02-26T13:12:54;6.50;79.70
81315;DHT22;75773;52.534;5.686;2024-02-26T13:15:26;6.50;79.60
81315;DHT22;75773;52.534;5.686;2024-02-26T13:17:55;6.50;79.60
81315;DHT22;75773;52.534;5.686;2024-02-26T13:20:26;6.50;79.50
81315;DHT22;75773;52.534;5.686;2024-02-26T13:23:02;6.50;79.50
81315;DHT22;75773;52.534;5.686;2024-02-26T13:25:35;6.50;79.60
81315;DHT22;75773;52.534;5.686;2024-02-26T13:28:09;6.50;79.50
81315;DHT22;75773;52.534;5.686;2024-02-26T13:30:41;6.50;79.40
81315;DHT22;75773;52.534;5.686;2024-02-26T13:33:12;6.50;79.30
81315;DHT22;75773;52.534;5.686;2024-02-26T13:35:41;6.50;79.30
81315;DHT22;75773;52.534;5.686;2024-02-26T13:38:11;6.50;79.30
81315;DHT22;75773;52.534;5.686;2024-02-26T13:40:40;6.50;79.20
81315;DHT22;75773;52.534;5.686;2024-02-26T13:43:10;6.50;79.10
81315;DHT22;75773;52.534;5.686;2024-02-26T13:45:42;6.50;79.20
81315;DHT22;75773;52.534;5.686;2024-02-26T13:48:13;6.50;79.20
81315;DHT22;75773;52.534;5.686;2024-02-26T13:50:43;6.60;79.20
81315;DHT22;75773;52.534;5.686;2024-02-26T13:53:13;6.60;79.10
81315;DHT22;75773;52.534;5.686;2024-02-26T13:55:45;6.60;79.00
81315;DHT22;75773;52.534;5.686;2024-02-26T13:58:15;6.60;79.10
81315;DHT22;75773;52.534;5.686;2024-02-26T14:00:51;6.60;79.10
81315;DHT22;75773;52.534;5.686;2024-02-26T14:03:21;6.60;79.10
81315;DHT22;75773;52.534;5.686;2024-02-26T14:05:50;6.70;79.10
81315;DHT22;75773;52.534;5.686;2024-02-26T14:08:23;6.70;79.00
81315;DHT22;75773;52.534;5.686;2024-02-26T14:10:52;6.70;79.00
81315;DHT22;75773;52.534;5.686;2024-02-26T14:13:22;6.70;78.90
81315;DHT22;75773;52.534;5.686;2024-02-26T14:15:53;6.70;79.00
81315;DHT22;75773;52.534;5.686;2024-02-26T14:18:23;6.70;79.00
81315;DHT22;75773;52.534;5.686;2024-02-26T14:20:53;6.60;79.00
81315;DHT22;75773;52.534;5.686;2024-02-26T14:23:25;6.60;79.00
81315;DHT22;75773;52.534;5.686;2024-02-26T14:25:54;6.60;79.00
81315;DHT22;75773;52.534;5.686;2024-02-26T14:28:23;6.50;79.00
81315;DHT22;75773;52.534;5.686;2024-02-26T14:30:57;6.50;79.10
81315;DHT22;75773;52.534;5.686;2024-02-26T14:33:29;6.50;79.10
81315;DHT22;75773;52.534;5.686;2024-02-26T14:36:01;6.50;79.00
81315;DHT22;75773;52.534;5.686;2024-02-26T14:38:30;6.50;79.00
81315;DHT22;75773;52.534;5.686;2024-02-26T14:40:59;6.40;79.00
81315;DHT22;75773;52.534;5.686;2024-02-26T14:43:29;6.40;79.10
81315;DHT22;75773;52.534;5.686;2024-02-26T14:46:03;6.50;79.10
81315;DHT22;75773;52.534;5.686;2024-02-26T14:48:33;6.50;79.10
81315;DHT22;75773;52.534;5.686;2024-02-26T14:51:02;6.50;79.00
81315;DHT22;75773;52.534;5.686;2024-02-26T14:53:32;6.40;79.00
81315;DHT22;75773;52.534;5.686;2024-02-26T14:56:01;6.40;79.00
81315;DHT22;75773;52.534;5.686;2024-02-26T14:58:31;6.30;79.10
81315;DHT22;75773;52.534;5.686;2024-02-26T15:01:03;6.30;79.20
81315;DHT22;75773;52.534;5.686;2024-02-26T15:03:37;6.30;79.10
81315;DHT22;75773;52.534;5.686;2024-02-26T15:06:06;6.20;79.10
81315;DHT22;75773;52.534;5.686;2024-02-26T15:08:36;6.20;79.20
81315;DHT22;75773;52.534;5.686;2024-02-26T15:11:06;6.10;79.10
81315;DHT22;75773;52.534;5.686;2024-02-26T15:13:36;6.10;79.20
81315;DHT22;75773;52.534;5.686;2024-02-26T15:16:08;6.10;79.20
81315;DHT22;75773;52.534;5.686;2024-02-26T15:18:38;6.00;79.10
81315;DHT22;75773;52.534;5.686;2024-02-26T15:21:07;6.00;79.20
81315;DHT22;75773;52.534;5.686;2024-02-26T15:23:38;6.00;79.20
81315;DHT22;75773;52.534;5.686;2024-02-26T15:26:08;6.00;79.20
81315;DHT22;75773;52.534;5.686;2024-02-26T15:28:40;5.90;79.20
81315;DHT22;75773;52.534;5.686;2024-02-26T15:31:12;5.90;79.20
81315;DHT22;75773;52.534;5.686;2024-02-26T15:33:41;5.90;79.20
81315;DHT22;75773;52.534;5.686;2024-02-26T15:36:10;5.80;79.20
81315;DHT22;75773;52.534;5.686;2024-02-26T15:38:39;5.80;79.20
81315;DHT22;75773;52.534;5.686;2024-02-26T15:41:11;5.80;79.30
81315;DHT22;75773;52.534;5.686;2024-02-26T15:43:46;5.80;79.40
81315;DHT22;75773;52.534;5.686;2024-02-26T15:46:19;5.80;79.30
81315;DHT22;75773;52.534;5.686;2024-02-26T15:48:51;5.80;79.30
81315;DHT22;75773;52.534;5.686;2024-02-26T15:51:38;5.70;79.30
81315;DHT22;75773;52.534;5.686;2024-02-26T15:54:07;5.70;79.30
81315;DHT22;75773;52.534;5.686;2024-02-26T15:56:40;5.60;79.40
81315;DHT22;75773;52.534;5.686;2024-02-26T15:59:10;5.60;79.40
81315;DHT22;75773;52.534;5.686;2024-02-26T16:01:42;5.50;79.40
81315;DHT22;75773;52.534;5.686;2024-02-26T16:04:12;5.50;79.50
81315;DHT22;75773;52.534;5.686;2024-02-26T16:06:43;5.50;79.50
81315;DHT22;75773;52.534;5.686;2024-02-26T16:09:13;5.50;79.50
81315;DHT22;75773;52.534;5.686;2024-02-26T16:11:45;5.50;79.50
81315;DHT22;75773;52.534;5.686;2024-02-26T16:14:26;5.40;79.50